sensor_id;sensor_type;location;lat;lon;timestamp;P1;durP1;ratioP1;P2;durP2;ratioP2
61570;SDS011;47463;49.884;10.010;2022-10-03T00:00:06;16.2;;;10.2;;
61570;SDS011;47463;49.884;10.010;2022-10-03T00:05:04;20.8;;;11.7;;
61570;SDS011;47463;49.884;10.010;2022-10-03T00:10:02;20.8;;;11.7;;
61570;SDS011;47463;49.884;10.010;2022-10-03T00:15:00;19.7;;;11.1;;
61570;SDS011;47463;49.884;10.010;2022-10-03T00:20:02;19.7;;;11.1;;
61570;SDS011;47463;49.884;10.010;2022-10-03T00:25:02;21.1;;;11.3;;
61570;SDS011;47463;49.884;10.010;2022-10-03T00:30:04;21.1;;;11.3;;
61570;SDS011;47463;49.884;10.010;2022-10-03T00:35:03;21;;;11.4;;
61570;SDS011;47463;49.884;10.010;2022-10-03T00:40:08;21;;;11.4;;
61570;SDS011;47463;49.884;10.010;2022-10-03T00:45:09;21.8;;;12.1;;
61570;SDS011;47463;49.884;10.010;2022-10-03T00:50:18;21.8;;;12.1;;
61570;SDS011;47463;49.884;10.010;2022-10-03T00:55:04;24.5;;;12.1;;
61570;SDS011;47463;49.884;10.010;2022-10-03T01:00:03;24.5;;;12.1;;
61570;SDS011;47463;49.884;10.010;2022-10-03T01:05:02;24.1;;;12.4;;
61570;SDS011;47463;49.884;10.010;2022-10-03T01:10:02;24.1;;;12.4;;
61570;SDS011;47463;49.884;10.010;2022-10-03T01:15:05;19.4;;;11.2;;
61570;SDS011;47463;49.884;10.010;2022-10-03T01:20:18;19.4;;;11.2;;
61570;SDS011;47463;49.884;10.010;2022-10-03T01:25:03;23.2;;;10.8;;
61570;SDS011;47463;49.884;10.010;2022-10-03T01:30:00;23.2;;;10.8;;
61570;SDS011;47463;49.884;10.010;2022-10-03T01:35:03;18.6;;;10.7;;
61570;SDS011;47463;49.884;10.010;2022-10-03T01:40:02;18.6;;;10.7;;
61570;SDS011;47463;49.884;10.010;2022-10-03T01:45:02;24.4;;;12.4;;
61570;SDS011;47463;49.884;10.010;2022-10-03T01:50:01;24.4;;;12.4;;
61570;SDS011;47463;49.884;10.010;2022-10-03T01:55:02;24.3;;;11.9;;
61570;SDS011;47463;49.884;10.010;2022-10-03T02:00:00;24.3;;;11.9;;
61570;SDS011;47463;49.884;10.010;2022-10-03T02:05:02;22;;;11.6;;
61570;SDS011;47463;49.884;10.010;2022-10-03T02:10:02;22;;;11.6;;
61570;SDS011;47463;49.884;10.010;2022-10-03T02:15:00;23.4;;;12.5;;
61570;SDS011;47463;49.884;10.010;2022-10-03T02:20:02;23.4;;;12.5;;
61570;SDS011;47463;49.884;10.010;2022-10-03T02:25:04;23.4;;;12;;
61570;SDS011;47463;49.884;10.010;2022-10-03T02:30:05;23.4;;;12;;
61570;SDS011;47463;49.884;10.010;2022-10-03T02:40:19;25.1;;;12.7;;
61570;SDS011;47463;49.884;10.010;2022-10-03T02:45:07;22.5;;;12.2;;
61570;SDS011;47463;49.884;10.010;2022-10-03T02:50:12;22.5;;;12.2;;
61570;SDS011;47463;49.884;10.010;2022-10-03T02:55:06;23.8;;;11.4;;
61570;SDS011;47463;49.884;10.010;2022-10-03T03:00:04;23.8;;;11.4;;
61570;SDS011;47463;49.884;10.010;2022-10-03T03:05:12;20.8;;;11.6;;
61570;SDS011;47463;49.884;10.010;2022-10-03T03:10:06;20.8;;;11.6;;
61570;SDS011;47463;49.884;10.010;2022-10-03T03:20:06;25.5;;;12.2;;
61570;SDS011;47463;49.884;10.010;2022-10-03T03:25:04;22.5;;;12;;
61570;SDS011;47463;49.884;10.010;2022-10-03T03:30:01;22.5;;;12;;
61570;SDS011;47463;49.884;10.010;2022-10-03T03:35:03;19;;;10.1;;
61570;SDS011;47463;49.884;10.010;2022-10-03T03:40:04;19;;;10.1;;
61570;SDS011;47463;49.884;10.010;2022-10-03T03:45:10;18.4;;;10.3;;
61570;SDS011;47463;49.884;10.010;2022-10-03T03:50:05;18.4;;;10.3;;
61570;SDS011;47463;49.884;10.010;2022-10-03T03:55:03;18.6;;;9.6;;
61570;SDS011;47463;49.884;10.010;2022-10-03T04:00:02;18.6;;;9.6;;
61570;SDS011;47463;49.884;10.010;2022-10-03T04:05:04;20;;;10;;
61570;SDS011;47463;49.884;10.010;2022-10-03T04:10:04;20;;;10;;
61570;SDS011;47463;49.884;10.010;2022-10-03T04:15:06;19.9;;;10.9;;
61570;SDS011;47463;49.884;10.010;2022-10-03T04:20:02;19.9;;;10.9;;
61570;SDS011;47463;49.884;10.010;2022-10-03T04:25:04;22.6;;;11;;
61570;SDS011;47463;49.884;10.010;2022-10-03T04:30:02;22.6;;;11;;
61570;SDS011;47463;49.884;10.010;2022-10-03T04:35:07;17.7;;;9.4;;
61570;SDS011;47463;49.884;10.010;2022-10-03T04:40:06;17.7;;;9.4;;
61570;SDS011;47463;49.884;10.010;2022-10-03T04:45:03;132.2;;;14.2;;
61570;SDS011;47463;49.884;10.010;2022-10-03T04:50:02;132.2;;;14.2;;
61570;SDS011;47463;49.884;10.010;2022-10-03T04:55:00;17;;;8.9;;
61570;SDS011;47463;49.884;10.010;2022-10-03T05:00:03;17;;;8.9;;
61570;SDS011;47463;49.884;10.010;2022-10-03T05:05:10;14.6;;;8.3;;
61570;SDS011;47463;49.884;10.010;2022-10-03T05:10:01;14.6;;;8.3;;
61570;SDS011;47463;49.884;10.010;2022-10-03T05:15:02;22.6;;;10.4;;
61570;SDS011;47463;49.884;10.010;2022-10-03T05:20:02;22.6;;;10.4;;
61570;SDS011;47463;49.884;10.010;2022-10-03T05:25:01;26.7;;;10.8;;
61570;SDS011;47463;49.884;10.010;2022-10-03T05:30:01;26.7;;;10.8;;
61570;SDS011;47463;49.884;10.010;2022-10-03T05:40:00;26.9;;;12.4;;
61570;SDS011;47463;49.884;10.010;2022-10-03T05:45:01;25.8;;;11.4;;
61570;SDS011;47463;49.884;10.010;2022-10-03T05:50:04;25.8;;;11.4;;
61570;SDS011;47463;49.884;10.010;2022-10-03T05:55:03;25.9;;;12.2;;
61570;SDS011;47463;49.884;10.010;2022-10-03T06:00:03;25.9;;;12.2;;
61570;SDS011;47463;49.884;10.010;2022-10-03T06:05:11;19.9;;;9;;
61570;SDS011;47463;49.884;10.010;2022-10-03T06:10:06;19.9;;;9;;
61570;SDS011;47463;49.884;10.010;2022-10-03T06:15:12;10.7;;;6.4;;
61570;SDS011;47463;49.884;10.010;2022-10-03T06:20:01;10.7;;;6.4;;
61570;SDS011;47463;49.884;10.010;2022-10-03T06:25:07;12;;;6.1;;
61570;SDS011;47463;49.884;10.010;2022-10-03T06:30:03;12;;;6.1;;
61570;SDS011;47463;49.884;10.010;2022-10-03T06:35:05;10.9;;;5.7;;
61570;SDS011;47463;49.884;10.010;2022-10-03T06:40:08;10.9;;;5.7;;
61570;SDS011;47463;49.884;10.010;2022-10-03T06:45:08;13.1;;;6.4;;
61570;SDS011;47463;49.884;10.010;2022-10-03T06:50:12;13.1;;;6.4;;
61570;SDS011;47463;49.884;10.010;2022-10-03T06:55:20;13.2;;;6.5;;
61570;SDS011;47463;49.884;10.010;2022-10-03T07:00:01;13.2;;;6.5;;
61570;SDS011;47463;49.884;10.010;2022-10-03T07:10:02;12.1;;;5.7;;
61570;SDS011;47463;49.884;10.010;2022-10-03T07:15:06;13.8;;;6.3;;
61570;SDS011;47463;49.884;10.010;2022-10-03T07:20:37;13.8;;;6.3;;
61570;SDS011;47463;49.884;10.010;2022-10-03T07:25:35;10.1;;;4.7;;
61570;SDS011;47463;49.884;10.010;2022-10-03T07:30:08;10.1;;;4.7;;
61570;SDS011;47463;49.884;10.010;2022-10-03T07:35:37;10.2;;;4.2;;
61570;SDS011;47463;49.884;10.010;2022-10-03T07:40:04;10.2;;;4.2;;
61570;SDS011;47463;49.884;10.010;2022-10-03T07:45:10;9.7;;;4.3;;
61570;SDS011;47463;49.884;10.010;2022-10-03T07:50:03;9.7;;;4.3;;
61570;SDS011;47463;49.884;10.010;2022-10-03T07:55:13;9.8;;;4.5;;
61570;SDS011;47463;49.884;10.010;2022-10-03T08:00:04;9.8;;;4.5;;
61570;SDS011;47463;49.884;10.010;2022-10-03T08:05:05;8.9;;;3.9;;
61570;SDS011;47463;49.884;10.010;2022-10-03T08:10:02;8.9;;;3.9;;
61570;SDS011;47463;49.884;10.010;2022-10-03T08:15:02;8.7;;;4;;
61570;SDS011;47463;49.884;10.010;2022-10-03T08:20:12;8.7;;;4;;
61570;SDS011;47463;49.884;10.010;2022-10-03T08:25:06;11.7;;;4;;
61570;SDS011;47463;49.884;10.010;2022-10-03T08:30:03;11.7;;;4;;
61570;SDS011;47463;49.884;10.010;2022-10-03T08:35:07;9.5;;;3.9;;
61570;SDS011;47463;49.884;10.010;2022-10-03T08:40:42;9.5;;;3.9;;
61570;SDS011;47463;49.884;10.010;2022-10-03T08:45:12;9.8;;;4;;
61570;SDS011;47463;49.884;10.010;2022-10-03T08:51:11;9.8;;;4;;
61570;SDS011;47463;49.884;10.010;2022-10-03T08:56:00;12.5;;;4.3;;
61570;SDS011;47463;49.884;10.010;2022-10-03T09:00:02;12.5;;;4.3;;
61570;SDS011;47463;49.884;10.010;2022-10-03T09:05:35;12.7;;;4.4;;
61570;SDS011;47463;49.884;10.010;2022-10-03T09:10:11;12.7;;;4.4;;
61570;SDS011;47463;49.884;10.010;2022-10-03T09:15:04;10.4;;;4.1;;
61570;SDS011;47463;49.884;10.010;2022-10-03T09:20:09;10.4;;;4.1;;
61570;SDS011;47463;49.884;10.010;2022-10-03T09:25:34;13.4;;;4.8;;
61570;SDS011;47463;49.884;10.010;2022-10-03T09:30:06;13.4;;;4.8;;
61570;SDS011;47463;49.884;10.010;2022-10-03T09:35:07;10.4;;;3.5;;
61570;SDS011;47463;49.884;10.010;2022-10-03T09:40:18;10.4;;;3.5;;
61570;SDS011;47463;49.884;10.010;2022-10-03T09:45:06;11.1;;;3.4;;
61570;SDS011;47463;49.884;10.010;2022-10-03T09:50:21;11.1;;;3.4;;
61570;SDS011;47463;49.884;10.010;2022-10-03T09:55:04;14.5;;;4;;
61570;SDS011;47463;49.884;10.010;2022-10-03T10:00:02;14.5;;;4;;
61570;SDS011;47463;49.884;10.010;2022-10-03T10:05:05;9.1;;;3.1;;
61570;SDS011;47463;49.884;10.010;2022-10-03T10:10:40;9.1;;;3.1;;
61570;SDS011;47463;49.884;10.010;2022-10-03T10:15:03;10.2;;;2.8;;
61570;SDS011;47463;49.884;10.010;2022-10-03T10:20:02;10.2;;;2.8;;
61570;SDS011;47463;49.884;10.010;2022-10-03T10:30:07;9.4;;;3.6;;
61570;SDS011;47463;49.884;10.010;2022-10-03T10:35:10;8.1;;;2.7;;
61570;SDS011;47463;49.884;10.010;2022-10-03T10:40:05;8.1;;;2.7;;
61570;SDS011;47463;49.884;10.010;2022-10-03T10:50:05;9;;;2.6;;
61570;SDS011;47463;49.884;10.010;2022-10-03T10:55:06;6.9;;;2.5;;
61570;SDS011;47463;49.884;10.010;2022-10-03T11:00:16;6.9;;;2.5;;
61570;SDS011;47463;49.884;10.010;2022-10-03T11:10:16;7.9;;;2.4;;
61570;SDS011;47463;49.884;10.010;2022-10-03T11:15:27;7.4;;;2.2;;
61570;SDS011;47463;49.884;10.010;2022-10-03T11:20:14;7.4;;;2.2;;
61570;SDS011;47463;49.884;10.010;2022-10-03T11:30:06;8.6;;;2.1;;
61570;SDS011;47463;49.884;10.010;2022-10-03T11:35:06;7.7;;;2.2;;
61570;SDS011;47463;49.884;10.010;2022-10-03T11:40:03;7.7;;;2.2;;
61570;SDS011;47463;49.884;10.010;2022-10-03T11:45:00;9.3;;;2.3;;
61570;SDS011;47463;49.884;10.010;2022-10-03T11:50:19;9.3;;;2.3;;
61570;SDS011;47463;49.884;10.010;2022-10-03T11:55:03;4.3;;;1.9;;
61570;SDS011;47463;49.884;10.010;2022-10-03T12:00:00;4.3;;;1.9;;
61570;SDS011;47463;49.884;10.010;2022-10-03T12:05:00;6;;;2.1;;
61570;SDS011;47463;49.884;10.010;2022-10-03T12:10:02;6;;;2.1;;
61570;SDS011;47463;49.884;10.010;2022-10-03T12:15:01;8.1;;;2;;
61570;SDS011;47463;49.884;10.010;2022-10-03T12:20:01;8.1;;;2;;
61570;SDS011;47463;49.884;10.010;2022-10-03T12:25:00;5.2;;;2;;
61570;SDS011;47463;49.884;10.010;2022-10-03T12:30:02;5.2;;;2;;
61570;SDS011;47463;49.884;10.010;2022-10-03T12:35:02;5.3;;;1.6;;
61570;SDS011;47463;49.884;10.010;2022-10-03T12:40:01;5.3;;;1.6;;
61570;SDS011;47463;49.884;10.010;2022-10-03T12:45:01;8.5;;;1.9;;
61570;SDS011;47463;49.884;10.010;2022-10-03T12:50:01;8.5;;;1.9;;
61570;SDS011;47463;49.884;10.010;2022-10-03T12:55:04;3.5;;;1.3;;
61570;SDS011;47463;49.884;10.010;2022-10-03T13:00:01;3.5;;;1.3;;
61570;SDS011;47463;49.884;10.010;2022-10-03T13:05:18;5.9;;;1.6;;
61570;SDS011;47463;49.884;10.010;2022-10-03T13:10:01;5.9;;;1.6;;
61570;SDS011;47463;49.884;10.010;2022-10-03T13:15:32;6.9;;;1.9;;
61570;SDS011;47463;49.884;10.010;2022-10-03T13:20:00;6.9;;;1.9;;
61570;SDS011;47463;49.884;10.010;2022-10-03T13:25:00;5.2;;;1.8;;
61570;SDS011;47463;49.884;10.010;2022-10-03T13:30:02;5.2;;;1.8;;
61570;SDS011;47463;49.884;10.010;2022-10-03T13:35:02;3.6;;;1.3;;
61570;SDS011;47463;49.884;10.010;2022-10-03T13:40:01;3.6;;;1.3;;
61570;SDS011;47463;49.884;10.010;2022-10-03T13:45:00;4;;;1.4;;
61570;SDS011;47463;49.884;10.010;2022-10-03T13:50:00;4;;;1.4;;
61570;SDS011;47463;49.884;10.010;2022-10-03T13:55:04;5;;;1.4;;
61570;SDS011;47463;49.884;10.010;2022-10-03T14:00:00;5;;;1.4;;
61570;SDS011;47463;49.884;10.010;2022-10-03T14:05:04;4.9;;;1.6;;
61570;SDS011;47463;49.884;10.010;2022-10-03T14:10:08;4.9;;;1.6;;
61570;SDS011;47463;49.884;10.010;2022-10-03T14:15:04;4.9;;;1.8;;
61570;SDS011;47463;49.884;10.010;2022-10-03T14:20:03;4.9;;;1.8;;
61570;SDS011;47463;49.884;10.010;2022-10-03T14:25:05;4.5;;;1.3;;
61570;SDS011;47463;49.884;10.010;2022-10-03T14:30:02;4.5;;;1.3;;
61570;SDS011;47463;49.884;10.010;2022-10-03T14:35:03;4;;;1.5;;
61570;SDS011;47463;49.884;10.010;2022-10-03T14:40:02;4;;;1.5;;
61570;SDS011;47463;49.884;10.010;2022-10-03T14:45:00;4.5;;;1.4;;
61570;SDS011;47463;49.884;10.010;2022-10-03T14:50:00;4.5;;;1.4;;
61570;SDS011;47463;49.884;10.010;2022-10-03T14:55:02;4.6;;;1.5;;
61570;SDS011;47463;49.884;10.010;2022-10-03T15:00:00;4.6;;;1.5;;
61570;SDS011;47463;49.884;10.010;2022-10-03T15:05:01;5.1;;;1.8;;
61570;SDS011;47463;49.884;10.010;2022-10-03T15:10:00;5.1;;;1.8;;
61570;SDS011;47463;49.884;10.010;2022-10-03T15:15:00;4.1;;;1.7;;
61570;SDS011;47463;49.884;10.010;2022-10-03T15:20:00;4.1;;;1.7;;
61570;SDS011;47463;49.884;10.010;2022-10-03T15:25:02;6.9;;;1.9;;
61570;SDS011;47463;49.884;10.010;2022-10-03T15:30:00;6.9;;;1.9;;
61570;SDS011;47463;49.884;10.010;2022-10-03T15:35:00;5.8;;;2.2;;
61570;SDS011;47463;49.884;10.010;2022-10-03T15:40:02;5.8;;;2.2;;
61570;SDS011;47463;49.884;10.010;2022-10-03T15:45:01;8;;;2.2;;
61570;SDS011;47463;49.884;10.010;2022-10-03T15:50:00;8;;;2.2;;
61570;SDS011;47463;49.884;10.010;2022-10-03T15:55:00;6.8;;;2.1;;
61570;SDS011;47463;49.884;10.010;2022-10-03T16:00:00;6.8;;;2.1;;
61570;SDS011;47463;49.884;10.010;2022-10-03T16:05:00;3.9;;;1.7;;
61570;SDS011;47463;49.884;10.010;2022-10-03T16:10:03;3.9;;;1.7;;
61570;SDS011;47463;49.884;10.010;2022-10-03T16:15:03;4.8;;;2;;
61570;SDS011;47463;49.884;10.010;2022-10-03T16:20:01;4.8;;;2;;
61570;SDS011;47463;49.884;10.010;2022-10-03T16:25:01;8.1;;;3.8;;
61570;SDS011;47463;49.884;10.010;2022-10-03T16:30:11;8.1;;;3.8;;
61570;SDS011;47463;49.884;10.010;2022-10-03T16:35:00;9.1;;;5.4;;
61570;SDS011;47463;49.884;10.010;2022-10-03T16:40:01;9.1;;;5.4;;
61570;SDS011;47463;49.884;10.010;2022-10-03T16:45:00;7.4;;;2.4;;
61570;SDS011;47463;49.884;10.010;2022-10-03T16:50:00;7.4;;;2.4;;
61570;SDS011;47463;49.884;10.010;2022-10-03T16:55:01;5.1;;;2;;
61570;SDS011;47463;49.884;10.010;2022-10-03T17:00:00;5.1;;;2;;
61570;SDS011;47463;49.884;10.010;2022-10-03T17:05:01;5.9;;;2.3;;
61570;SDS011;47463;49.884;10.010;2022-10-03T17:10:00;5.9;;;2.3;;
61570;SDS011;47463;49.884;10.010;2022-10-03T17:15:01;7.3;;;2.1;;
61570;SDS011;47463;49.884;10.010;2022-10-03T17:20:00;7.3;;;2.1;;
61570;SDS011;47463;49.884;10.010;2022-10-03T17:25:00;5.6;;;2.1;;
61570;SDS011;47463;49.884;10.010;2022-10-03T17:30:00;5.6;;;2.1;;
61570;SDS011;47463;49.884;10.010;2022-10-03T17:35:01;6;;;2.5;;
61570;SDS011;47463;49.884;10.010;2022-10-03T17:40:00;6;;;2.5;;
61570;SDS011;47463;49.884;10.010;2022-10-03T17:45:02;7.3;;;2.6;;
61570;SDS011;47463;49.884;10.010;2022-10-03T17:50:02;7.3;;;2.6;;
61570;SDS011;47463;49.884;10.010;2022-10-03T17:55:01;9.2;;;2.8;;
61570;SDS011;47463;49.884;10.010;2022-10-03T18:00:00;9.2;;;2.8;;
61570;SDS011;47463;49.884;10.010;2022-10-03T18:05:03;8;;;2.9;;
61570;SDS011;47463;49.884;10.010;2022-10-03T18:10:00;8;;;2.9;;
61570;SDS011;47463;49.884;10.010;2022-10-03T18:15:06;7.7;;;3.3;;
61570;SDS011;47463;49.884;10.010;2022-10-03T18:20:04;7.7;;;3.3;;
61570;SDS011;47463;49.884;10.010;2022-10-03T18:25:03;8.3;;;3.2;;
61570;SDS011;47463;49.884;10.010;2022-10-03T18:30:00;8.3;;;3.2;;
61570;SDS011;47463;49.884;10.010;2022-10-03T18:35:02;8.3;;;3.8;;
61570;SDS011;47463;49.884;10.010;2022-10-03T18:40:00;8.3;;;3.8;;
61570;SDS011;47463;49.884;10.010;2022-10-03T18:45:00;11.3;;;4.6;;
61570;SDS011;47463;49.884;10.010;2022-10-03T18:50:02;11.3;;;4.6;;
61570;SDS011;47463;49.884;10.010;2022-10-03T18:55:00;10.5;;;4.8;;
61570;SDS011;47463;49.884;10.010;2022-10-03T19:00:00;10.5;;;4.8;;
61570;SDS011;47463;49.884;10.010;2022-10-03T19:05:01;8.6;;;3.7;;
61570;SDS011;47463;49.884;10.010;2022-10-03T19:10:03;8.6;;;3.7;;
61570;SDS011;47463;49.884;10.010;2022-10-03T19:15:01;8.2;;;4.2;;
61570;SDS011;47463;49.884;10.010;2022-10-03T19:20:09;8.2;;;4.2;;
61570;SDS011;47463;49.884;10.010;2022-10-03T19:25:00;8.8;;;4.4;;
61570;SDS011;47463;49.884;10.010;2022-10-03T19:30:00;8.8;;;4.4;;
61570;SDS011;47463;49.884;10.010;2022-10-03T19:35:02;9.5;;;4;;
61570;SDS011;47463;49.884;10.010;2022-10-03T19:40:00;9.5;;;4;;
61570;SDS011;47463;49.884;10.010;2022-10-03T19:45:00;10.2;;;4.3;;
61570;SDS011;47463;49.884;10.010;2022-10-03T19:50:02;10.2;;;4.3;;
61570;SDS011;47463;49.884;10.010;2022-10-03T19:55:01;9.1;;;4.7;;
61570;SDS011;47463;49.884;10.010;2022-10-03T20:00:00;9.1;;;4.7;;
61570;SDS011;47463;49.884;10.010;2022-10-03T20:05:00;11.4;;;4.7;;
61570;SDS011;47463;49.884;10.010;2022-10-03T20:10:02;11.4;;;4.7;;
61570;SDS011;47463;49.884;10.010;2022-10-03T20:15:01;8.3;;;4.5;;
61570;SDS011;47463;49.884;10.010;2022-10-03T20:20:00;8.3;;;4.5;;
61570;SDS011;47463;49.884;10.010;2022-10-03T20:25:00;9.4;;;4.8;;
61570;SDS011;47463;49.884;10.010;2022-10-03T20:30:03;9.4;;;4.8;;
61570;SDS011;47463;49.884;10.010;2022-10-03T20:35:00;10.7;;;4.8;;
61570;SDS011;47463;49.884;10.010;2022-10-03T20:40:04;10.7;;;4.8;;
61570;SDS011;47463;49.884;10.010;2022-10-03T20:45:00;12.7;;;5.4;;
61570;SDS011;47463;49.884;10.010;2022-10-03T20:50:00;12.7;;;5.4;;
61570;SDS011;47463;49.884;10.010;2022-10-03T20:55:01;10.4;;;5.5;;
61570;SDS011;47463;49.884;10.010;2022-10-03T21:00:02;10.4;;;5.5;;
61570;SDS011;47463;49.884;10.010;2022-10-03T21:05:00;10.5;;;5.2;;
61570;SDS011;47463;49.884;10.010;2022-10-03T21:10:01;10.5;;;5.2;;
61570;SDS011;47463;49.884;10.010;2022-10-03T21:15:01;13.2;;;5.2;;
61570;SDS011;47463;49.884;10.010;2022-10-03T21:20:00;13.2;;;5.2;;
61570;SDS011;47463;49.884;10.010;2022-10-03T21:25:00;11.2;;;5.1;;
61570;SDS011;47463;49.884;10.010;2022-10-03T21:30:01;11.2;;;5.1;;
61570;SDS011;47463;49.884;10.010;2022-10-03T21:35:01;9.2;;;5;;
61570;SDS011;47463;49.884;10.010;2022-10-03T21:40:04;9.2;;;5;;
61570;SDS011;47463;49.884;10.010;2022-10-03T21:45:04;12.9;;;5.8;;
61570;SDS011;47463;49.884;10.010;2022-10-03T21:50:00;12.9;;;5.8;;
61570;SDS011;47463;49.884;10.010;2022-10-03T21:55:04;10.7;;;5.3;;
61570;SDS011;47463;49.884;10.010;2022-10-03T22:00:03;10.7;;;5.3;;
61570;SDS011;47463;49.884;10.010;2022-10-03T22:05:01;14.5;;;6.3;;
61570;SDS011;47463;49.884;10.010;2022-10-03T22:10:00;14.5;;;6.3;;
61570;SDS011;47463;49.884;10.010;2022-10-03T22:15:02;9;;;5.3;;
61570;SDS011;47463;49.884;10.010;2022-10-03T22:20:04;9;;;5.3;;
61570;SDS011;47463;49.884;10.010;2022-10-03T22:25:04;12.1;;;5.8;;
61570;SDS011;47463;49.884;10.010;2022-10-03T22:30:00;12.1;;;5.8;;
61570;SDS011;47463;49.884;10.010;2022-10-03T22:35:02;12.3;;;5;;
61570;SDS011;47463;49.884;10.010;2022-10-03T22:40:00;12.3;;;5;;
61570;SDS011;47463;49.884;10.010;2022-10-03T22:45:00;10.1;;;4.7;;
61570;SDS011;47463;49.884;10.010;2022-10-03T22:50:00;10.1;;;4.7;;
61570;SDS011;47463;49.884;10.010;2022-10-03T22:55:00;11.3;;;4.6;;
61570;SDS011;47463;49.884;10.010;2022-10-03T23:00:01;11.3;;;4.6;;
61570;SDS011;47463;49.884;10.010;2022-10-03T23:05:00;8.4;;;4.6;;
61570;SDS011;47463;49.884;10.010;2022-10-03T23:10:06;8.4;;;4.6;;
61570;SDS011;47463;49.884;10.010;2022-10-03T23:15:00;14.8;;;5.3;;
61570;SDS011;47463;49.884;10.010;2022-10-03T23:20:01;14.8;;;5.3;;
61570;SDS011;47463;49.884;10.010;2022-10-03T23:25:00;14.8;;;4.9;;
61570;SDS011;47463;49.884;10.010;2022-10-03T23:31:05;14.8;;;4.9;;
61570;SDS011;47463;49.884;10.010;2022-10-03T23:35:11;12.9;;;5.3;;
61570;SDS011;47463;49.884;10.010;2022-10-03T23:41:07;12.9;;;5.3;;
61570;SDS011;47463;49.884;10.010;2022-10-03T23:45:01;11;;;5.3;;
61570;SDS011;47463;49.884;10.010;2022-10-03T23:50:01;11;;;5.3;;
61570;SDS011;47463;49.884;10.010;2022-10-03T23:55:00;9.7;;;5.1;;
